Time;durP1;ratioP1;P1;durP2;ratioP2;P2;SDS_P1;SDS_P2;PMS_P1;PMS_P2;Temp;Humidity;BMP_temperature;BMP_pressure;BME280_temperature;BME280_humidity;BME280_pressure;Samples;Min_cycle;Max_cycle;Signal;HPM_P1;HPM_P2
2021/09/02 00:00:47;;;;;;;9.43;5.20;;;12.60;99.90;;;;;;5032061;28;20211;-62
2021/09/02 00:03:14;;;;;;;5.80;4.40;;;12.60;99.90;;;;;;5032459;28;20233;-62
2021/09/02 00:05:41;;;;;;;7.97;4.57;;;12.50;99.90;;;;;;5031975;28;20364;-62
2021/09/02 00:08:09;;;;;;;6.80;4.50;;;12.50;99.90;;;;;;5031848;28;20732;-62
2021/09/02 00:10:36;;;;;;;5.87;4.80;;;12.50;99.90;;;;;;5031918;28;20206;-62
2021/09/02 00:13:03;;;;;;;5.40;4.57;;;12.50;99.90;;;;;;5031692;28;20210;-62
2021/09/02 00:15:29;;;;;;;6.93;4.57;;;12.50;99.90;;;;;;5031684;28;20283;-62
2021/09/02 00:17:56;;;;;;;6.30;5.20;;;12.50;99.90;;;;;;5031565;28;20255;-62
2021/09/02 00:20:23;;;;;;;7.47;5.10;;;12.40;99.90;;;;;;5031953;28;20202;-62
2021/09/02 00:22:49;;;;;;;6.10;4.70;;;12.50;99.90;;;;;;5031787;28;20210;-62
2021/09/02 00:25:17;;;;;;;6.40;4.40;;;12.40;99.90;;;;;;5031166;28;20253;-63
2021/09/02 00:27:44;;;;;;;7.67;4.77;;;12.40;99.90;;;;;;5031283;28;20203;-62
2021/09/02 00:30:11;;;;;;;6.67;4.70;;;12.30;99.90;;;;;;5031644;28;20210;-62
2021/09/02 00:32:38;;;;;;;9.97;4.70;;;12.30;99.90;;;;;;5031522;28;20206;-62
2021/09/02 00:35:06;;;;;;;6.70;4.67;;;12.30;99.90;;;;;;5030477;28;20225;-61
2021/09/02 00:37:33;;;;;;;5.80;4.67;;;12.30;99.90;;;;;;5031283;28;20210;-61
2021/09/02 00:40:00;;;;;;;7.40;4.97;;;12.30;99.90;;;;;;5031105;28;20206;-62
2021/09/02 00:42:28;;;;;;;5.77;4.93;;;12.20;99.90;;;;;;5031015;28;20213;-62
2021/09/02 00:44:55;;;;;;;7.93;5.47;;;12.20;99.90;;;;;;5030788;28;20234;-61
2021/09/02 00:47:22;;;;;;;7.10;5.00;;;12.20;99.90;;;;;;5031349;28;20217;-61
2021/09/02 00:49:50;;;;;;;7.13;5.20;;;12.20;99.90;;;;;;5030951;28;20210;-61
2021/09/02 00:52:19;;;;;;;7.47;5.60;;;12.20;99.90;;;;;;5030959;28;20202;-62
2021/09/02 00:54:47;;;;;;;6.80;4.87;;;12.10;99.90;;;;;;5030749;28;20230;-62
2021/09/02 00:57:16;;;;;;;6.57;4.57;;;12.20;99.90;;;;;;5031102;28;20288;-62
2021/09/02 00:59:45;;;;;;;9.10;5.50;;;12.20;99.90;;;;;;5031174;28;20206;-62
2021/09/02 01:02:12;;;;;;;6.00;4.80;;;12.10;99.90;;;;;;5031012;28;20213;-62
2021/09/02 01:04:39;;;;;;;6.47;5.17;;;12.10;99.90;;;;;;5030673;28;20237;-62
2021/09/02 01:07:07;;;;;;;7.57;5.00;;;12.10;99.90;;;;;;5030816;28;20211;-62
2021/09/02 01:09:35;;;;;;;6.93;4.60;;;12.00;99.90;;;;;;5030986;28;20206;-62
2021/09/02 01:12:33;;;;;;;5.53;4.60;;;12.00;99.90;;;;;;5031168;28;20219;-63
2021/09/02 01:15:02;;;;;;;6.27;5.10;;;12.00;99.90;;;;;;5031015;28;20222;-62
2021/09/02 01:17:30;;;;;;;5.33;4.83;;;12.00;99.90;;;;;;5031128;28;20256;-62
2021/09/02 01:19:57;;;;;;;7.37;4.70;;;12.00;99.90;;;;;;5030898;28;20206;-62
2021/09/02 01:22:25;;;;;;;7.27;5.17;;;11.90;99.90;;;;;;5030889;28;20206;-62
2021/09/02 01:24:53;;;;;;;5.63;5.03;;;11.90;99.90;;;;;;5030632;28;20238;-62
2021/09/02 01:27:20;;;;;;;6.97;5.10;;;11.90;99.90;;;;;;5030817;28;20300;-62
2021/09/02 01:29:51;;;;;;;6.33;5.03;;;11.90;99.90;;;;;;5030773;28;20206;-62
2021/09/02 01:32:19;;;;;;;8.27;5.47;;;11.90;99.90;;;;;;5030934;28;20242;-62
2021/09/02 01:34:46;;;;;;;6.63;5.30;;;11.90;99.90;;;;;;5030546;28;20233;-63
2021/09/02 01:37:13;;;;;;;6.70;5.40;;;11.80;99.90;;;;;;5030719;28;20202;-62
2021/09/02 01:39:39;;;;;;;7.93;5.70;;;11.80;99.90;;;;;;5030544;28;20213;-62
2021/09/02 01:42:12;;;;;;;5.93;5.33;;;11.80;99.90;;;;;;5030568;28;20622;-62
2021/09/02 01:44:39;;;;;;;7.07;5.60;;;11.80;99.90;;;;;;5030187;28;20379;-62
2021/09/02 01:47:19;;;;;;;6.47;5.27;;;11.80;99.90;;;;;;5034449;28;20213;-62
2021/09/02 01:49:46;;;;;;;6.30;4.93;;;11.70;99.90;;;;;;5034503;28;20272;-62
2021/09/02 01:52:13;;;;;;;7.90;5.10;;;11.70;99.90;;;;;;5034470;28;20205;-62
2021/09/02 01:54:40;;;;;;;8.43;5.13;;;11.60;99.90;;;;;;5034185;28;20218;-62
2021/09/02 01:57:08;;;;;;;5.40;4.57;;;11.60;99.90;;;;;;5034125;28;20206;-62
2021/09/02 01:59:35;;;;;;;6.27;4.60;;;11.50;99.90;;;;;;5034598;28;20206;-62
2021/09/02 02:02:01;;;;;;;7.47;5.30;;;11.50;99.90;;;;;;5034412;28;20347;-62
2021/09/02 02:04:28;;;;;;;5.50;4.90;;;11.50;99.90;;;;;;5034186;28;20234;-62
2021/09/02 02:06:55;;;;;;;6.53;5.00;;;11.40;99.90;;;;;;5034179;28;20213;-61
2021/09/02 02:09:21;;;;;;;7.03;4.73;;;11.40;99.90;;;;;;5033863;28;20221;-62
2021/09/02 02:11:48;;;;;;;7.23;4.37;;;11.40;99.90;;;;;;5034500;28;20210;-62
2021/09/02 02:14:16;;;;;;;5.57;5.00;;;11.40;99.90;;;;;;5034131;28;20206;-62
2021/09/02 02:16:43;;;;;;;5.47;4.67;;;11.30;99.90;;;;;;5034203;28;20213;-62
2021/09/02 02:19:10;;;;;;;5.93;4.90;;;11.20;99.90;;;;;;5034124;28;20210;-62
2021/09/02 02:21:36;;;;;;;6.27;4.73;;;11.20;99.90;;;;;;5033973;28;20210;-62
2021/09/02 02:24:03;;;;;;;6.47;5.20;;;11.20;99.90;;;;;;5034116;28;20625;-62
2021/09/02 02:26:30;;;;;;;5.93;5.10;;;11.10;99.90;;;;;;5033827;28;20232;-62
2021/09/02 02:28:57;;;;;;;5.47;4.93;;;11.10;99.90;;;;;;5034029;28;20591;-62
2021/09/02 02:31:25;;;;;;;8.03;4.90;;;11.10;99.90;;;;;;5033783;28;20210;-62
2021/09/02 02:33:52;;;;;;;5.80;5.20;;;11.10;99.90;;;;;;5033602;28;20214;-63
2021/09/02 02:36:18;;;;;;;7.17;4.80;;;11.10;99.90;;;;;;5033709;28;20225;-62
2021/09/02 02:38:45;;;;;;;12.87;5.53;;;11.10;99.90;;;;;;5034048;28;20214;-63
2021/09/02 02:41:12;;;;;;;7.20;5.10;;;11.10;99.90;;;;;;5033635;28;20608;-62
2021/09/02 02:43:39;;;;;;;6.70;5.43;;;11.10;99.90;;;;;;5033787;28;20206;-62
2021/09/02 02:46:05;;;;;;;8.00;5.80;;;11.10;99.90;;;;;;5033528;28;20230;-63
2021/09/02 02:48:33;;;;;;;7.67;5.97;;;11.10;99.90;;;;;;5033701;28;20279;-62
2021/09/02 02:51:00;;;;;;;9.53;5.97;;;11.10;99.90;;;;;;5033783;28;20402;-62
2021/09/02 02:53:27;;;;;;;7.17;5.97;;;11.10;99.90;;;;;;5033308;28;20637;-63
2021/09/02 02:55:54;;;;;;;8.20;5.57;;;11.10;99.90;;;;;;5033745;28;20313;-62
2021/09/02 02:58:20;;;;;;;7.20;5.53;;;11.00;99.90;;;;;;5032465;28;20297;-63
2021/09/02 03:00:47;;;;;;;7.50;4.87;;;11.00;99.90;;;;;;5033413;28;20206;-62
2021/09/02 03:03:14;;;;;;;9.27;5.30;;;11.00;99.90;;;;;;5033904;28;20666;-63
2021/09/02 03:05:42;;;;;;;10.40;5.70;;;11.00;99.90;;;;;;5032955;28;20710;-63
2021/09/02 03:08:08;;;;;;;6.37;5.50;;;11.00;99.90;;;;;;5032810;28;20264;-62
2021/09/02 03:10:35;;;;;;;6.80;5.70;;;11.00;99.90;;;;;;5033176;28;20217;-62
2021/09/02 03:13:02;;;;;;;8.77;5.50;;;11.00;99.90;;;;;;5033086;28;20207;-62
2021/09/02 03:15:29;;;;;;;10.37;5.47;;;11.00;99.90;;;;;;5032688;28;20636;-63
2021/09/02 03:17:57;;;;;;;5.27;4.50;;;11.00;99.90;;;;;;5032784;28;20206;-63
2021/09/02 03:20:24;;;;;;;8.70;5.30;;;10.90;99.90;;;;;;5032740;28;20210;-63
2021/09/02 03:22:52;;;;;;;6.33;4.77;;;10.90;99.90;;;;;;5032914;28;20217;-63
2021/09/02 03:25:19;;;;;;;6.17;5.13;;;10.90;99.90;;;;;;5033127;28;20237;-63
2021/09/02 03:27:46;;;;;;;5.73;5.10;;;10.90;99.90;;;;;;5033319;28;20214;-63
2021/09/02 03:30:13;;;;;;;5.97;5.20;;;10.90;99.90;;;;;;5033020;28;20213;-63
2021/09/02 03:32:40;;;;;;;6.40;5.27;;;10.90;99.90;;;;;;5032602;28;20214;-63
2021/09/02 03:35:08;;;;;;;10.37;7.73;;;10.90;99.90;;;;;;5032764;28;20226;-63
2021/09/02 03:37:35;;;;;;;6.23;5.27;;;10.90;99.90;;;;;;5033070;28;20202;-63
2021/09/02 03:40:04;;;;;;;6.33;5.43;;;10.90;99.90;;;;;;5032289;28;20605;-63
2021/09/02 03:42:31;;;;;;;9.90;7.17;;;10.90;99.90;;;;;;5032416;28;20206;-63
2021/09/02 03:44:58;;;;;;;8.63;6.43;;;10.80;99.90;;;;;;5032094;28;20229;-62
2021/09/02 03:47:25;;;;;;;7.27;6.20;;;10.80;99.90;;;;;;5032576;28;20218;-62
2021/09/02 03:49:51;;;;;;;7.87;5.97;;;10.80;99.90;;;;;;5032658;28;20202;-63
2021/09/02 03:52:18;;;;;;;6.60;5.90;;;10.80;99.90;;;;;;5032751;28;20206;-63
2021/09/02 03:54:44;;;;;;;7.50;5.80;;;10.80;99.90;;;;;;5032406;28;20226;-63
2021/09/02 03:57:12;;;;;;;8.47;6.23;;;10.90;99.90;;;;;;5032367;28;20256;-63
2021/09/02 03:59:39;;;;;;;13.23;6.47;;;10.80;99.90;;;;;;5032272;28;20210;-63
2021/09/02 04:02:06;;;;;;;8.47;5.77;;;10.80;99.90;;;;;;5032125;28;20210;-63
2021/09/02 04:04:32;;;;;;;6.40;5.50;;;10.80;99.90;;;;;;5031915;28;20237;-63
2021/09/02 04:06:59;;;;;;;8.20;6.17;;;10.70;99.90;;;;;;5032070;28;20202;-62
2021/09/02 04:09:26;;;;;;;8.43;5.47;;;10.80;99.90;;;;;;5031911;28;20585;-63
2021/09/02 04:11:52;;;;;;;8.00;6.07;;;10.80;99.90;;;;;;5032017;28;20206;-63
2021/09/02 04:14:20;;;;;;;7.47;5.40;;;10.80;99.90;;;;;;5031788;28;20268;-62
2021/09/02 04:16:47;;;;;;;8.73;5.97;;;10.80;99.90;;;;;;5031759;28;20232;-63
2021/09/02 04:19:14;;;;;;;11.50;7.40;;;10.80;99.90;;;;;;5031879;28;20206;-63
2021/09/02 04:21:40;;;;;;;5.37;4.70;;;10.80;99.90;;;;;;5031766;28;20272;-63
2021/09/02 04:24:07;;;;;;;8.03;6.23;;;10.80;99.90;;;;;;5031370;28;20210;-63
2021/09/02 04:26:34;;;;;;;27.10;17.73;;;10.80;99.90;;;;;;5031606;28;20531;-63
2021/09/02 04:29:00;;;;;;;11.33;6.17;;;10.80;99.90;;;;;;5031390;28;20582;-63
2021/09/02 04:31:28;;;;;;;8.67;5.67;;;10.70;99.90;;;;;;5031535;28;20210;-63
2021/09/02 04:33:55;;;;;;;7.13;5.60;;;10.70;99.90;;;;;;5031453;28;20217;-63
2021/09/02 04:36:22;;;;;;;7.57;5.80;;;10.70;99.90;;;;;;5031551;28;20241;-63
2021/09/02 04:38:48;;;;;;;9.53;6.17;;;10.70;99.90;;;;;;5031394;28;20206;-63
2021/09/02 04:41:15;;;;;;;8.67;5.90;;;10.70;99.90;;;;;;5031433;28;20205;-63
2021/09/02 04:43:42;;;;;;;8.10;5.47;;;10.70;99.90;;;;;;5030957;28;20214;-63
2021/09/02 04:46:11;;;;;;;8.27;5.77;;;10.70;99.90;;;;;;5031029;28;20226;-63
2021/09/02 04:48:39;;;;;;;9.27;6.17;;;10.70;99.90;;;;;;5031310;28;20206;-63
2021/09/02 04:51:06;;;;;;;7.37;5.60;;;10.70;99.90;;;;;;5031288;28;20206;-63
2021/09/02 04:53:33;;;;;;;7.07;5.13;;;10.70;99.90;;;;;;5031096;28;20636;-63
2021/09/02 04:56:00;;;;;;;8.60;6.27;;;10.70;99.90;;;;;;5031692;28;20277;-63
2021/09/02 04:58:26;;;;;;;7.23;5.77;;;10.80;99.90;;;;;;5030935;28;20268;-63
2021/09/02 05:00:53;;;;;;;8.83;6.03;;;10.80;99.90;;;;;;5031270;28;20206;-63
2021/09/02 05:03:20;;;;;;;9.33;7.40;;;10.80;99.90;;;;;;5031291;28;20213;-63
2021/09/02 05:05:48;;;;;;;9.70;5.87;;;10.90;99.90;;;;;;5030760;28;20222;-63
2021/09/02 05:08:14;;;;;;;6.37;5.47;;;10.90;99.90;;;;;;5030707;28;20213;-63
2021/09/02 05:10:43;;;;;;;10.90;9.70;;;10.90;99.90;;;;;;5030915;28;20232;-63
2021/09/02 05:13:10;;;;;;;9.53;7.10;;;11.00;99.90;;;;;;5031057;28;20212;-63
2021/09/02 05:15:37;;;;;;;7.23;6.07;;;11.00;99.90;;;;;;5030995;28;20376;-63
2021/09/02 05:18:04;;;;;;;6.23;5.63;;;11.10;99.90;;;;;;5030989;28;20283;-63
2021/09/02 05:20:31;;;;;;;9.37;6.27;;;11.20;99.90;;;;;;5030588;28;20209;-63
2021/09/02 05:22:59;;;;;;;13.17;10.13;;;11.20;99.90;;;;;;5031106;28;20569;-63
2021/09/02 05:25:26;;;;;;;13.67;7.63;;;11.30;99.90;;;;;;5030428;28;20229;-63
2021/09/02 05:27:53;;;;;;;20.57;14.27;;;11.40;99.90;;;;;;5030842;28;20218;-63
2021/09/02 05:30:19;;;;;;;11.27;8.17;;;11.40;99.90;;;;;;5030864;28;20248;-63
2021/09/02 05:32:47;;;;;;;7.87;6.53;;;11.50;99.90;;;;;;5030602;28;20218;-63
2021/09/02 05:35:14;;;;;;;9.63;6.87;;;11.50;99.90;;;;;;5030609;28;20280;-63
2021/09/02 05:37:41;;;;;;;7.53;6.73;;;11.60;99.90;;;;;;5030728;28;20630;-63
2021/09/02 05:40:11;;;;;;;31.23;19.57;;;11.70;99.90;;;;;;5030802;28;20210;-63
2021/09/02 05:42:38;;;;;;;13.40;8.83;;;12.30;99.90;;;;;;5030349;28;20202;-61
2021/09/02 05:45:05;;;;;;;11.80;7.20;;;13.50;99.90;;;;;;5030292;28;20234;-62
2021/09/02 05:47:32;;;;;;;10.60;5.80;;;14.90;99.90;;;;;;5030141;28;20217;-61
2021/09/02 05:49:59;;;;;;;9.00;4.80;;;16.30;99.90;;;;;;5030278;28;20644;-62
2021/09/02 05:52:25;;;;;;;9.20;6.10;;;17.70;99.90;;;;;;5030358;28;20499;-63
2021/09/02 05:54:54;;;;;;;8.53;4.57;;;18.70;99.90;;;;;;5030085;28;20710;-62
2021/09/02 05:57:23;;;;;;;7.95;4.95;;;19.60;99.90;;;;;;5030253;28;20748;-63
2021/09/02 05:59:49;;;;;;;6.63;4.72;;;20.50;99.90;;;;;;5030022;28;20210;-62
2021/09/02 06:02:16;;;;;;;6.30;4.55;;;21.40;99.90;;;;;;5030286;28;20268;-63
2021/09/02 06:04:43;;;;;;;7.38;3.85;;;21.50;99.90;;;;;;5030248;28;20245;-65
2021/09/02 06:07:09;;;;;;;7.35;3.72;;;21.30;99.90;;;;;;5030458;28;20229;-62
2021/09/02 06:09:36;;;;;;;6.03;4.05;;;20.80;99.90;;;;;;5030627;28;20206;-63
2021/09/02 06:12:03;;;;;;;4.72;4.18;;;20.50;99.90;;;;;;5030271;28;20637;-62
2021/09/02 06:14:31;;;;;;;6.50;4.10;;;21.30;99.90;;;;;;5030378;28;20230;-62
2021/09/02 06:16:58;;;;;;;6.30;4.75;;;22.50;99.90;;;;;;5030360;28;20210;-62
2021/09/02 06:19:24;;;;;;;5.10;3.95;;;23.90;99.90;;;;;;5030279;28;20287;-63
2021/09/02 06:21:51;;;;;;;6.28;4.25;;;25.00;99.90;;;;;;5030036;28;20214;-63
2021/09/02 06:24:18;;;;;;;7.18;4.72;;;26.00;99.90;;;;;;5030000;28;20213;-63
2021/09/02 06:26:44;;;;;;;7.85;4.07;;;26.80;99.80;;;;;;5030261;28;20645;-62
2021/09/02 06:29:11;;;;;;;7.45;4.60;;;27.60;97.30;;;;;;5030226;28;20214;-62
2021/09/02 06:31:39;;;;;;;8.38;4.97;;;28.30;94.50;;;;;;5029931;28;20241;-62
2021/09/02 06:34:06;;;;;;;6.88;4.35;;;28.70;92.00;;;;;;5033262;28;20607;-63
2021/09/02 06:36:33;;;;;;;6.13;4.90;;;29.10;90.00;;;;;;5033519;28;20206;-62
2021/09/02 06:38:59;;;;;;;5.50;4.25;;;29.30;87.60;;;;;;5033562;28;20674;-63
2021/09/02 06:41:26;;;;;;;6.47;4.65;;;29.40;86.50;;;;;;5033399;28;20712;-63
2021/09/02 06:43:52;;;;;;;7.05;4.25;;;29.60;84.60;;;;;;5033542;28;20637;-63
2021/09/02 06:46:20;;;;;;;4.63;4.18;;;30.00;81.10;;;;;;5033366;28;20583;-64
2021/09/02 06:48:47;;;;;;;5.57;4.70;;;30.00;80.60;;;;;;5033283;28;20212;-63
2021/09/02 06:51:14;;;;;;;10.38;7.10;;;30.00;79.90;;;;;;5033536;28;20206;-63
2021/09/02 06:53:41;;;;;;;5.40;4.60;;;30.30;78.60;;;;;;5033281;28;20206;-63
2021/09/02 06:56:07;;;;;;;5.72;4.25;;;30.80;76.80;;;;;;5033196;28;20218;-63
2021/09/02 06:58:34;;;;;;;6.40;4.60;;;30.90;74.50;;;;;;5033061;28;20689;-63
2021/09/02 07:01:01;;;;;;;5.60;4.32;;;30.90;73.80;;;;;;5033010;28;20550;-63
2021/09/02 07:03:27;;;;;;;5.85;4.22;;;31.10;72.80;;;;;;5032816;28;20210;-63
2021/09/02 07:05:55;;;;;;;5.45;4.32;;;31.40;71.60;;;;;;5033339;28;20252;-63
2021/09/02 07:08:22;;;;;;;6.53;4.20;;;31.90;70.10;;;;;;5033126;28;20560;-63
2021/09/02 07:10:49;;;;;;;7.07;4.55;;;32.40;69.20;;;;;;5033664;28;20505;-63
2021/09/02 07:13:15;;;;;;;6.50;4.20;;;32.50;66.40;;;;;;5034129;28;20631;-63
2021/09/02 07:15:42;;;;;;;6.25;4.70;;;32.10;67.10;;;;;;5034620;28;20639;-63
2021/09/02 07:18:09;;;;;;;6.28;4.32;;;32.50;65.20;;;;;;5033926;28;20214;-63
2021/09/02 07:20:35;;;;;;;7.43;4.45;;;32.50;65.30;;;;;;5033185;28;20214;-63
2021/09/02 07:23:03;;;;;;;5.13;4.25;;;33.10;64.50;;;;;;5032796;28;20218;-63
2021/09/02 07:25:31;;;;;;;7.13;4.30;;;33.80;63.00;;;;;;5032353;28;20234;-63
2021/09/02 07:27:58;;;;;;;5.38;4.22;;;34.30;60.20;;;;;;5032497;28;20226;-63
2021/09/02 07:30:25;;;;;;;5.13;4.03;;;33.60;61.20;;;;;;5032692;28;20210;-62
2021/09/02 07:32:52;;;;;;;6.65;3.97;;;32.40;62.60;;;;;;5032500;28;20202;-63
2021/09/02 07:35:19;;;;;;;4.10;3.67;;;32.20;64.40;;;;;;5032238;28;20234;-62
2021/09/02 07:37:45;;;;;;;7.82;4.32;;;32.50;62.30;;;;;;5032324;28;20714;-62
2021/09/02 07:40:14;;;;;;;6.93;4.20;;;31.00;66.20;;;;;;5032282;28;20747;-62
2021/09/02 07:42:41;;;;;;;7.15;4.55;;;30.50;67.30;;;;;;5032491;28;20224;-62
2021/09/02 07:45:08;;;;;;;9.02;4.63;;;29.80;69.80;;;;;;5031810;28;20229;-62
2021/09/02 07:47:35;;;;;;;5.10;3.88;;;29.90;70.50;;;;;;5032232;28;20233;-63
2021/09/02 07:50:05;;;;;;;6.95;4.35;;;30.60;68.30;;;;;;5032600;28;20297;-62
2021/09/02 07:52:32;;;;;;;5.00;4.00;;;31.50;65.50;;;;;;5032403;28;20202;-63
2021/09/02 07:54:58;;;;;;;4.57;4.18;;;32.00;64.50;;;;;;5031972;28;20248;-63
2021/09/02 07:57:26;;;;;;;5.32;3.90;;;32.70;62.50;;;;;;5032302;28;20233;-63
2021/09/02 07:59:53;;;;;;;5.07;3.55;;;33.10;62.80;;;;;;5032053;28;20345;-63
2021/09/02 08:02:20;;;;;;;4.97;4.10;;;33.30;60.40;;;;;;5032584;28;20237;-63
2021/09/02 08:04:46;;;;;;;5.68;4.00;;;33.50;61.20;;;;;;5032324;28;20241;-63
2021/09/02 08:07:13;;;;;;;4.45;3.92;;;33.90;59.80;;;;;;5032300;28;20230;-63
2021/09/02 08:09:40;;;;;;;5.35;4.30;;;34.00;59.40;;;;;;5031909;28;20203;-63
2021/09/02 08:12:07;;;;;;;7.72;4.10;;;33.50;59.90;;;;;;5032093;28;20210;-62
2021/09/02 08:14:35;;;;;;;4.65;4.05;;;32.10;61.60;;;;;;5031867;28;20226;-63
2021/09/02 08:17:02;;;;;;;7.18;4.32;;;30.60;65.10;;;;;;5032019;28;20198;-62
2021/09/02 08:19:28;;;;;;;5.00;4.28;;;28.90;68.70;;;;;;5031765;28;20701;-62
2021/09/02 08:21:55;;;;;;;6.80;4.80;;;27.40;73.10;;;;;;5031661;28;20202;-61
2021/09/02 08:24:22;;;;;;;5.03;4.28;;;26.00;78.10;;;;;;5031459;28;20671;-62
2021/09/02 08:26:49;;;;;;;6.65;4.38;;;25.10;81.00;;;;;;5031493;28;20230;-62
2021/09/02 08:29:16;;;;;;;5.47;4.40;;;24.50;84.40;;;;;;5031641;28;20206;-62
2021/09/02 08:31:44;;;;;;;5.47;4.40;;;23.90;87.80;;;;;;5031693;28;20210;-62
2021/09/02 08:34:11;;;;;;;5.85;4.82;;;23.30;90.20;;;;;;5031329;28;20215;-62
2021/09/02 08:36:38;;;;;;;5.70;4.57;;;23.00;91.10;;;;;;5031622;28;20667;-62
2021/09/02 08:39:04;;;;;;;7.63;4.60;;;22.60;92.40;;;;;;5031415;28;20800;-62
2021/09/02 08:41:34;;;;;;;5.85;4.47;;;22.20;93.80;;;;;;5031531;28;20210;-62
2021/09/02 08:44:01;;;;;;;7.30;4.95;;;21.80;94.80;;;;;;5031335;28;20222;-62
2021/09/02 08:46:29;;;;;;;6.55;4.32;;;21.60;96.40;;;;;;5032217;28;20261;-62
2021/09/02 08:49:01;;;;;;;4.95;4.28;;;21.40;97.60;;;;;;5032588;28;20471;-62
2021/09/02 08:51:28;;;;;;;4.80;4.20;;;21.30;98.20;;;;;;5031623;28;20221;-62
2021/09/02 08:53:55;;;;;;;7.43;4.10;;;21.20;99.00;;;;;;5031036;28;20599;-62
2021/09/02 08:56:22;;;;;;;6.10;4.07;;;21.20;99.90;;;;;;5030785;28;20230;-62
2021/09/02 08:58:49;;;;;;;7.32;4.38;;;21.20;99.30;;;;;;5031068;28;20260;-62
2021/09/02 09:01:16;;;;;;;5.38;4.53;;;21.20;99.90;;;;;;5031336;28;20248;-61
2021/09/02 09:03:48;;;;;;;4.97;4.47;;;21.10;99.90;;;;;;5040047;28;20212;-64
2021/09/02 09:06:24;;;;;;;8.55;4.60;;;21.20;99.90;;;;;;5051039;28;20230;-64
2021/09/02 09:08:51;;;;;;;6.25;4.45;;;21.10;99.90;;;;;;5050126;28;20436;-67
2021/09/02 09:11:20;;;;;;;7.25;4.75;;;21.00;99.90;;;;;;5051199;28;20414;-66
2021/09/02 09:13:48;;;;;;;4.43;3.92;;;21.00;99.90;;;;;;5050322;28;20206;-68
2021/09/02 09:16:37;;;;;;;6.07;4.50;;;21.00;99.90;;;;;;5050736;28;20581;-61
2021/09/02 09:19:04;;;;;;;6.82;4.70;;;21.00;99.90;;;;;;5050500;28;20665;-61
2021/09/02 09:21:32;;;;;;;5.93;4.75;;;21.00;99.90;;;;;;5051001;28;20560;-62
2021/09/02 09:24:02;;;;;;;6.75;5.10;;;21.20;99.90;;;;;;5050678;28;20209;-62
2021/09/02 09:26:29;;;;;;;6.05;4.18;;;21.30;99.90;;;;;;5051518;28;20241;-59
2021/09/02 09:28:58;;;;;;;7.35;5.20;;;21.50;99.90;;;;;;5051003;28;20216;-59
2021/09/02 09:31:29;;;;;;;5.38;4.57;;;21.50;99.90;;;;;;5051058;28;20296;-59
2021/09/02 09:33:58;;;;;;;5.53;4.57;;;21.60;99.90;;;;;;5051142;28;20263;-59
2021/09/02 09:36:26;;;;;;;5.75;4.80;;;21.70;99.90;;;;;;5051048;28;20283;-61
2021/09/02 09:39:04;;;;;;;4.45;4.05;;;21.80;99.90;;;;;;5051121;28;20201;-63
2021/09/02 09:41:32;;;;;;;7.60;4.97;;;22.00;99.90;;;;;;5050739;28;20739;-62
2021/09/02 09:44:14;;;;;;;4.60;4.20;;;22.10;99.90;;;;;;5050495;28;20221;-59
2021/09/02 09:46:41;;;;;;;6.35;4.65;;;22.10;99.90;;;;;;5051238;28;20225;-59
2021/09/02 09:49:08;;;;;;;7.05;5.10;;;22.00;99.90;;;;;;5050562;28;20206;-59
2021/09/02 09:51:34;;;;;;;5.20;4.43;;;22.10;99.90;;;;;;5051412;28;20283;-59
2021/09/02 09:54:02;;;;;;;8.13;5.03;;;22.30;99.90;;;;;;5050485;28;20209;-60
2021/09/02 09:56:29;;;;;;;8.02;5.20;;;22.40;99.90;;;;;;5050688;28;20321;-59
2021/09/02 09:58:56;;;;;;;4.85;4.35;;;22.40;99.90;;;;;;5051393;28;20213;-59
2021/09/02 10:01:27;;;;;;;4.55;3.85;;;22.30;99.90;;;;;;5051075;28;20279;-59
2021/09/02 10:03:55;;;;;;;5.85;4.35;;;22.30;99.90;;;;;;5053539;28;20532;-59
2021/09/02 10:06:24;;;;;;;6.57;4.50;;;22.30;99.90;;;;;;5053106;28;20336;-60
2021/09/02 10:08:51;;;;;;;6.25;4.70;;;22.20;99.90;;;;;;5054166;28;20343;-60
2021/09/02 10:11:21;;;;;;;5.00;4.43;;;22.20;99.90;;;;;;5054171;28;20209;-60
2021/09/02 10:13:48;;;;;;;5.95;4.35;;;22.30;99.90;;;;;;5054121;28;20259;-60
2021/09/02 10:16:15;;;;;;;6.88;4.55;;;22.40;99.90;;;;;;5053765;28;20230;-65
2021/09/02 10:18:44;;;;;;;5.03;4.50;;;22.40;99.90;;;;;;5051815;28;20446;-68
2021/09/02 10:21:12;;;;;;;5.53;4.40;;;22.50;99.90;;;;;;5054221;28;20209;-66
2021/09/02 10:23:39;;;;;;;5.53;4.47;;;22.50;99.90;;;;;;5053629;28;20206;-67
2021/09/02 10:26:06;;;;;;;5.10;4.40;;;22.60;99.90;;;;;;5053697;28;20661;-67
2021/09/02 10:28:36;;;;;;;7.00;4.80;;;22.60;99.90;;;;;;5053465;28;20225;-67
2021/09/02 10:31:05;;;;;;;5.15;4.18;;;22.60;99.90;;;;;;5054382;28;20213;-68
2021/09/02 10:33:40;;;;;;;5.70;4.45;;;22.70;99.30;;;;;;5054423;28;20210;-67
2021/09/02 10:36:46;;;;;;;6.88;4.75;;;22.80;98.80;;;;;;5053828;28;20655;-66
2021/09/02 10:39:29;;;;;;;5.63;4.40;;;22.90;99.00;;;;;;5035931;28;20216;-66
2021/09/02 10:41:56;;;;;;;5.60;4.03;;;22.90;98.70;;;;;;5053633;28;20206;-66
2021/09/02 10:44:51;;;;;;;6.10;4.25;;;22.80;98.10;;;;;;5053254;28;20206;-66
2021/09/02 10:47:19;;;;;;;6.97;4.60;;;22.90;98.50;;;;;;5053550;28;20230;-66
2021/09/02 10:50:00;;;;;;;5.78;4.45;;;23.00;98.70;;;;;;5053279;28;20771;-66
2021/09/02 10:52:28;;;;;;;5.10;4.60;;;23.30;98.50;;;;;;5053251;28;20230;-67
2021/09/02 10:54:55;;;;;;;9.38;5.60;;;23.50;98.30;;;;;;5053110;28;20637;-66
2021/09/02 10:57:36;;;;;;;5.32;4.82;;;23.60;98.10;;;;;;5053225;28;20272;-65
2021/09/02 11:00:05;;;;;;;4.63;3.97;;;23.60;98.10;;;;;;5053047;28;20210;-65
2021/09/02 11:02:43;;;;;;;5.35;4.05;;;23.60;98.00;;;;;;5053345;28;20209;-65
2021/09/02 11:05:12;;;;;;;6.28;4.53;;;23.70;97.80;;;;;;5052822;28;20230;-66
2021/09/02 11:07:42;;;;;;;5.55;4.32;;;23.80;97.50;;;;;;5053093;28;20230;-66
2021/09/02 11:10:15;;;;;;;6.32;4.43;;;23.70;97.30;;;;;;5053123;28;20209;-66
2021/09/02 11:12:42;;;;;;;6.65;4.90;;;23.60;97.20;;;;;;5052893;28;20209;-67
2021/09/02 11:15:19;;;;;;;4.93;4.15;;;23.60;97.10;;;;;;5052691;28;20231;-67
2021/09/02 11:17:51;;;;;;;7.60;4.80;;;23.80;97.40;;;;;;5053170;28;20189;-66
2021/09/02 11:20:22;;;;;;;4.65;4.10;;;23.90;97.20;;;;;;5053002;28;20201;-67
2021/09/02 11:22:49;;;;;;;6.88;4.47;;;24.00;95.50;;;;;;5052808;28;20209;-66
2021/09/02 11:25:16;;;;;;;5.03;4.25;;;23.80;95.50;;;;;;5052521;28;20237;-66
2021/09/02 11:27:43;;;;;;;4.82;3.63;;;23.80;95.50;;;;;;5052521;28;20705;-66
2021/09/02 11:30:16;;;;;;;4.85;3.75;;;23.70;95.70;;;;;;5052464;28;20216;-66
2021/09/02 11:32:43;;;;;;;8.00;4.47;;;23.80;94.80;;;;;;5052903;28;20217;-66
2021/09/02 11:35:11;;;;;;;5.63;4.07;;;23.80;94.70;;;;;;5052340;28;20229;-66
2021/09/02 11:37:40;;;;;;;7.82;4.28;;;23.80;94.30;;;;;;5052899;28;20211;-62
2021/09/02 11:40:09;;;;;;;8.02;4.22;;;23.90;94.60;;;;;;5052369;28;20212;-68
2021/09/02 11:42:36;;;;;;;5.40;4.00;;;23.90;94.40;;;;;;5052285;28;20267;-66
2021/09/02 11:45:03;;;;;;;11.52;4.50;;;24.00;94.00;;;;;;5052265;28;20275;-64
2021/09/02 11:47:36;;;;;;;8.20;4.70;;;24.00;93.90;;;;;;5052421;28;20244;-64
2021/09/02 11:50:05;;;;;;;7.97;4.18;;;24.20;94.20;;;;;;5052128;28;20264;-67
2021/09/02 11:52:38;;;;;;;5.30;4.07;;;24.20;93.70;;;;;;5052297;28;20206;-67
2021/09/02 11:55:06;;;;;;;5.15;3.83;;;24.30;93.10;;;;;;5052110;28;20233;-67
2021/09/02 11:57:33;;;;;;;4.10;3.70;;;24.40;92.70;;;;;;5053014;28;20206;-66
2021/09/02 12:00:00;;;;;;;4.38;3.58;;;24.40;91.80;;;;;;5052195;28;20670;-67
2021/09/02 12:02:27;;;;;;;6.85;3.67;;;24.40;91.30;;;;;;5052308;28;20433;-67
2021/09/02 12:04:55;;;;;;;5.68;3.65;;;24.40;91.80;;;;;;5051875;28;20283;-67
2021/09/02 12:07:23;;;;;;;7.30;3.75;;;24.40;91.50;;;;;;5051767;28;20233;-67
2021/09/02 12:09:50;;;;;;;5.20;3.90;;;24.40;91.30;;;;;;5051648;28;20209;-67
2021/09/02 12:12:28;;;;;;;5.57;3.60;;;24.50;91.10;;;;;;5051968;28;20201;-67
2021/09/02 12:14:55;;;;;;;4.07;3.58;;;24.40;91.10;;;;;;5051798;28;20225;-67
2021/09/02 12:17:32;;;;;;;4.03;3.63;;;24.50;90.80;;;;;;5051854;28;20205;-65
2021/09/02 12:20:01;;;;;;;4.93;3.45;;;24.60;90.80;;;;;;5051365;28;20244;-64
2021/09/02 12:22:33;;;;;;;4.50;3.42;;;24.70;90.50;;;;;;5051790;28;20212;-66
2021/09/02 12:25:13;;;;;;;4.40;3.53;;;24.60;90.50;;;;;;5051234;28;20248;-65
2021/09/02 12:27:41;;;;;;;4.68;3.80;;;24.60;90.90;;;;;;5051275;28;20236;-65
2021/09/02 12:30:09;;;;;;;4.03;3.17;;;24.80;90.30;;;;;;5050300;28;20356;-65
2021/09/02 12:32:35;;;;;;;5.22;4.07;;;24.90;90.10;;;;;;5048285;28;20922;-63
2021/09/02 12:35:14;;;;;;;10.00;3.70;;;25.10;90.50;;;;;;5051383;28;20225;-65
2021/09/02 12:37:41;;;;;;;4.28;3.63;;;25.30;90.10;;;;;;5051279;28;20582;-64
2021/09/02 12:40:16;;;;;;;8.70;3.60;;;25.30;89.40;;;;;;5051653;28;20673;-65
2021/09/02 12:42:44;;;;;;;3.95;3.42;;;25.30;89.10;;;;;;5050968;28;20580;-62
2021/09/02 12:45:17;;;;;;;3.65;3.33;;;25.30;87.30;;;;;;5050653;28;20702;-66
2021/09/02 12:47:44;;;;;;;5.30;3.80;;;25.20;87.50;;;;;;5051201;28;20656;-64
2021/09/02 12:50:17;;;;;;;6.68;3.67;;;25.10;88.20;;;;;;5051177;28;20205;-61